Time;durP1;ratioP1;P1;durP2;ratioP2;P2;SDS_P1;SDS_P2;PMS_P1;PMS_P2;Temp;Humidity;BMP_temperature;BMP_pressure;BME280_temperature;BME280_humidity;BME280_pressure;Samples;Min_cycle;Max_cycle;Signal;HPM_P1;HPM_P2
2022/06/02 00:00:59;;;;;;;10.57;7.65;;;;;;;19.10;nan;99661.63;4960011;28;20094;-78
2022/06/02 00:03:34;;;;;;;8.93;7.45;;;;;;;19.02;nan;99672.47;4961806;28;20126;-78
2022/06/02 00:06:11;;;;;;;8.02;7.22;;;;;;;18.90;nan;99664.16;4961475;28;20062;-78
2022/06/02 00:09:13;;;;;;;8.90;8.10;;;;;;;18.85;nan;99655.88;4960047;28;20444;-78
2022/06/02 00:12:00;;;;;;;8.85;7.95;;;;;;;18.89;nan;99657.16;4941105;28;20452;-78
2022/06/02 00:14:29;;;;;;;9.32;7.93;;;;;;;18.93;nan;99666.44;4963050;28;20039;-78
2022/06/02 00:17:24;;;;;;;8.55;7.75;;;;;;;18.96;nan;99660.72;4965922;28;20045;-78
2022/06/02 00:19:57;;;;;;;9.38;7.10;;;;;;;18.95;nan;99656.38;4962883;28;20500;-77
2022/06/02 00:22:32;;;;;;;8.57;7.82;;;;;;;18.92;nan;99656.75;4966577;28;20035;-78
2022/06/02 00:25:35;;;;;;;8.88;7.97;;;;;;;18.90;nan;99652.63;4965697;28;20212;-78
2022/06/02 00:28:32;;;;;;;9.32;8.35;;;;;;;18.88;nan;99655.50;4965051;28;20027;-78
2022/06/02 00:31:29;;;;;;;8.50;7.72;;;;;;;18.91;nan;99654.28;4960709;28;20065;-78
2022/06/02 00:33:55;;;;;;;9.73;8.60;;;;;;;18.93;nan;99652.22;4964616;28;20046;-77
2022/06/02 00:37:02;;;;;;;8.10;7.38;;;;;;;18.91;nan;99652.41;4966253;28;20031;-78
2022/06/02 00:39:31;;;;;;;11.07;8.02;;;;;;;18.91;nan;99656.97;4974452;28;20110;-78
2022/06/02 00:42:28;;;;;;;9.05;8.18;;;;;;;18.92;nan;99658.59;4976578;28;20066;-78
2022/06/02 00:44:57;;;;;;;9.18;8.25;;;;;;;18.91;nan;99665.00;4964737;28;20031;-78
2022/06/02 00:47:32;;;;;;;10.27;8.18;;;;;;;18.89;nan;99657.16;4961995;28;20035;-79
2022/06/02 00:50:35;;;;;;;9.05;8.10;;;;;;;18.90;nan;99661.47;4960641;28;20035;-78
2022/06/02 00:53:34;;;;;;;10.10;9.20;;;;;;;18.82;nan;99661.59;4966946;28;20039;-78
2022/06/02 00:59:15;;;;;;;10.23;8.27;;;;;;;18.78;nan;99655.00;4964364;28;20376;-78
2022/06/02 01:01:41;;;;;;;9.85;7.90;;;;;;;18.79;nan;99651.31;4963655;28;20045;-78
2022/06/02 01:04:17;;;;;;;9.70;8.48;;;;;;;18.71;nan;99643.44;4962152;28;20109;-77
2022/06/02 01:06:48;;;;;;;9.43;8.45;;;;;;;18.65;nan;99649.53;4966114;28;20038;-78
2022/06/02 01:09:43;;;;;;;11.15;8.35;;;;;;;18.62;nan;99655.25;4963157;28;20043;-78
2022/06/02 01:12:33;;;;;;;12.60;8.25;;;;;;;18.65;nan;99649.53;4965920;28;20026;-78
2022/06/02 01:15:05;;;;;;;9.95;8.50;;;;;;;18.64;nan;99658.56;4964688;28;20051;-78
2022/06/02 01:17:54;;;;;;;9.32;8.43;;;;;;;18.63;nan;99654.25;4964101;28;20067;-78
2022/06/02 01:20:40;;;;;;;9.60;8.68;;;;;;;18.58;nan;99656.66;4962744;28;20050;-78
2022/06/02 01:23:33;;;;;;;9.90;8.90;;;;;;;18.49;nan;99649.78;4963836;28;20030;-78
2022/06/02 01:26:10;;;;;;;12.32;8.68;;;;;;;18.36;nan;99662.00;4964009;28;20216;-78
2022/06/02 01:28:46;;;;;;;9.75;8.77;;;;;;;18.29;nan;99660.25;4963093;28;20169;-78
2022/06/02 01:31:21;;;;;;;9.40;8.52;;;;;;;18.21;nan;99657.69;4965916;28;20063;-78
2022/06/02 01:33:55;;;;;;;11.65;10.45;;;;;;;18.17;nan;99651.09;4962334;28;20559;-78
2022/06/02 01:36:36;;;;;;;13.00;9.15;;;;;;;18.18;nan;99653.56;4962907;28;20404;-77
2022/06/02 01:39:29;;;;;;;11.30;9.38;;;;;;;18.15;nan;99653.09;4963636;28;20031;-78
2022/06/02 01:42:16;;;;;;;10.25;9.15;;;;;;;18.13;nan;99653.31;4962875;28;20027;-78
2022/06/02 01:45:10;;;;;;;10.93;9.65;;;;;;;18.13;nan;99656.00;4962247;28;20480;-78
2022/06/02 01:47:40;;;;;;;11.02;9.52;;;;;;;18.12;nan;99665.00;4964152;28;20031;-78
2022/06/02 01:51:05;;;;;;;14.95;9.80;;;;;;;18.11;nan;99665.19;4963478;28;20031;-78
2022/06/02 01:53:36;;;;;;;11.48;9.60;;;;;;;18.07;nan;99672.75;4964546;28;20145;-78
2022/06/02 01:56:26;;;;;;;11.68;8.85;;;;;;;18.09;nan;99665.38;4961220;28;20032;-78
2022/06/02 01:59:01;;;;;;;10.10;9.20;;;;;;;18.11;nan;99674.03;4963064;28;20055;-78
2022/06/02 02:01:47;;;;;;;10.25;9.20;;;;;;;18.07;nan;99672.75;4962133;28;20286;-78
2022/06/02 02:04:34;;;;;;;9.95;8.48;;;;;;;18.07;nan;99661.25;4963215;28;20042;-78
2022/06/02 02:07:03;;;;;;;13.07;9.15;;;;;;;18.07;nan;99664.75;4963855;28;20130;-78
2022/06/02 02:09:35;;;;;;;11.00;9.90;;;;;;;18.07;nan;99663.91;4960806;28;20138;-78
2022/06/02 02:12:01;;;;;;;10.52;9.10;;;;;;;18.09;nan;99665.38;4945046;28;20074;-78
2022/06/02 02:14:44;;;;;;;13.35;9.43;;;;;;;18.13;nan;99680.03;4962462;28;20043;-77
2022/06/02 02:17:15;;;;;;;10.00;9.10;;;;;;;18.13;nan;99680.03;4960402;28;20499;-78
2022/06/02 02:19:58;;;;;;;10.63;9.63;;;;;;;18.06;nan;99673.78;4962371;28;20134;-77
2022/06/02 02:22:41;;;;;;;11.00;8.60;;;;;;;18.07;nan;99686.13;4964062;28;20085;-78
2022/06/02 02:25:16;;;;;;;10.73;9.32;;;;;;;18.05;nan;99680.13;4964261;28;20510;-78
2022/06/02 02:28:04;;;;;;;10.15;9.15;;;;;;;18.07;nan;99683.44;4961200;28;20034;-77
2022/06/02 02:30:35;;;;;;;11.23;9.10;;;;;;;18.05;nan;99681.97;4962790;28;20035;-78
2022/06/02 02:33:09;;;;;;;;;;;;;;;18.06;nan;99686.28;4963877;28;20027;-77
2022/06/02 02:36:06;;;;;;;10.38;9.38;;;;;;;17.93;nan;99686.97;4963327;28;19986;-78
2022/06/02 02:38:56;;;;;;;13.15;9.02;;;;;;;17.85;nan;99695.06;4960143;28;20085;-78
2022/06/02 02:41:36;;;;;;;13.10;9.38;;;;;;;17.72;nan;99700.25;4961311;28;20043;-78
2022/06/02 02:44:34;;;;;;;10.60;9.17;;;;;;;17.70;nan;99692.41;4962593;28;20027;-77
2022/06/02 02:47:02;;;;;;;10.02;9.02;;;;;;;17.67;nan;99694.63;4962284;28;20133;-77
2022/06/02 02:49:36;;;;;;;10.05;9.02;;;;;;;17.63;nan;99696.00;4964055;28;20046;-78
2022/06/02 02:52:07;;;;;;;10.82;9.68;;;;;;;17.62;nan;99695.16;4962522;28;20109;-77
2022/06/02 02:54:44;;;;;;;10.13;9.23;;;;;;;17.56;nan;99702.03;4962393;28;20075;-78
2022/06/02 02:57:32;;;;;;;10.30;9.38;;;;;;;17.56;nan;99702.03;4961031;28;20125;-78
2022/06/02 03:00:09;;;;;;;11.13;8.88;;;;;;;17.62;nan;99711.19;4962217;28;20027;-78
2022/06/02 03:02:51;;;;;;;14.10;9.27;;;;;;;17.57;nan;99701.03;4960070;28;20039;-78
2022/06/02 03:05:33;;;;;;;9.80;8.85;;;;;;;17.54;nan;99698.75;4958667;28;20035;-78
2022/06/02 03:08:14;;;;;;;10.38;9.38;;;;;;;17.62;nan;99705.00;4959894;28;20049;-77
2022/06/02 03:10:44;;;;;;;9.65;8.85;;;;;;;17.66;nan;99698.31;4959006;28;20074;-78
2022/06/02 03:13:43;;;;;;;10.45;9.35;;;;;;;17.68;nan;99701.59;4963504;28;20022;-78
2022/06/02 03:16:12;;;;;;;11.50;8.95;;;;;;;17.58;nan;99716.03;4963243;28;20548;-78
2022/06/02 03:18:56;;;;;;;10.88;9.63;;;;;;;17.35;nan;99720.63;4960939;28;20129;-78
2022/06/02 03:21:36;;;;;;;11.18;10.15;;;;;;;17.16;nan;99726.47;4976143;28;20040;-78
2022/06/02 03:24:04;;;;;;;11.80;9.77;;;;;;;17.17;nan;99725.47;4962166;28;20475;-78
2022/06/02 03:27:09;;;;;;;10.70;9.60;;;;;;;17.23;nan;99727.41;4961528;28;20323;-78
2022/06/02 03:29:53;;;;;;;14.63;10.35;;;;;;;17.35;nan;99723.28;4962251;28;20051;-78
2022/06/02 03:32:26;;;;;;;12.98;10.05;;;;;;;17.40;nan;99728.91;4960755;28;20050;-77
2022/06/02 03:35:24;;;;;;;12.10;10.75;;;;;;;17.44;nan;99730.19;4963196;28;20623;-77
2022/06/02 03:38:13;;;;;;;12.70;10.68;;;;;;;17.44;nan;99735.53;4958740;28;20054;-76
2022/06/02 03:41:04;;;;;;;11.77;10.60;;;;;;;17.16;nan;99747.81;4960629;28;20144;-78
2022/06/02 03:43:45;;;;;;;11.50;10.05;;;;;;;17.02;nan;99740.59;4961287;28;20055;-77
2022/06/02 03:46:28;;;;;;;11.15;9.98;;;;;;;17.00;nan;99732.78;4959231;28;20134;-80
2022/06/02 03:49:17;;;;;;;13.30;10.75;;;;;;;17.04;nan;99727.91;4960019;28;20091;-78
2022/06/02 03:51:49;;;;;;;12.65;11.35;;;;;;;17.11;nan;99726.19;4960019;28;20031;-79
2022/06/02 03:54:30;;;;;;;11.32;10.10;;;;;;;17.16;nan;99737.97;4960276;28;20476;-78
2022/06/02 03:57:02;;;;;;;17.38;10.55;;;;;;;17.20;nan;99731.25;4978053;28;20039;-78
2022/06/02 04:00:01;;;;;;;10.90;9.77;;;;;;;17.28;nan;99734.84;4961906;28;20051;-78
2022/06/02 04:02:50;;;;;;;10.48;9.43;;;;;;;17.29;nan;99732.03;4961505;28;20039;-78
2022/06/02 04:05:37;;;;;;;10.50;9.50;;;;;;;17.29;nan;99748.03;4960940;28;20126;-77
2022/06/02 04:08:30;;;;;;;10.48;9.50;;;;;;;17.31;nan;99746.00;4967483;28;20059;-77
2022/06/02 04:13:37;;;;;;;11.25;10.00;;;;;;;17.15;nan;99754.13;4964176;28;20034;-78
2022/06/02 04:14:39;;;;;;;10.23;9.20;;;;;;;17.15;nan;99762.13;4963859;28;20060;-77
2022/06/02 04:17:26;;;;;;;10.25;9.30;;;;;;;17.16;nan;99758.47;4964744;28;20066;-79
2022/06/02 04:23:06;;;;;;;13.43;9.95;;;;;;;17.11;nan;99758.19;4963890;28;20541;-78
2022/06/02 04:25:53;;;;;;;11.13;9.95;;;;;;;17.05;nan;99756.22;4960363;28;20046;-78
2022/06/02 04:28:40;;;;;;;14.77;10.93;;;;;;;17.00;nan;99748.78;4974490;28;20301;-78
2022/06/02 04:31:29;;;;;;;11.50;10.38;;;;;;;16.98;nan;99749.94;4961017;28;20031;-78
2022/06/02 04:34:14;;;;;;;12.18;10.77;;;;;;;16.98;nan;99742.78;4960832;28;20700;-78
2022/06/02 04:36:52;;;;;;;13.95;11.45;;;;;;;16.93;nan;99744.34;4949030;28;20147;-78
2022/06/02 04:39:26;;;;;;;12.15;11.00;;;;;;;17.00;nan;99747.94;4959941;28;20028;-77
2022/06/02 04:41:53;;;;;;;12.30;11.10;;;;;;;17.09;nan;99747.69;4961392;28;20035;-78
2022/06/02 04:44:28;;;;;;;12.02;10.85;;;;;;;17.14;nan;99747.16;4963056;28;20479;-78
2022/06/02 04:47:22;;;;;;;13.00;11.77;;;;;;;17.23;nan;99740.75;4960417;28;20034;-77
2022/06/02 04:49:53;;;;;;;17.45;11.82;;;;;;;17.33;nan;99740.47;4958288;28;20039;-78
2022/06/02 04:52:20;;;;;;;13.13;11.88;;;;;;;17.39;nan;99737.91;4959947;28;20040;-77
2022/06/02 04:55:21;;;;;;;12.95;11.75;;;;;;;17.48;nan;99734.16;4959643;28;20036;-77
2022/06/02 04:58:11;;;;;;;13.77;12.25;;;;;;;17.59;nan;99733.72;4966389;28;20046;-78
2022/06/02 05:00:51;;;;;;;13.75;12.43;;;;;;;17.66;nan;99733.00;4968111;28;20487;-77
2022/06/02 05:03:32;;;;;;;13.20;11.77;;;;;;;17.73;nan;99739.28;4978032;28;20086;-78
2022/06/02 05:06:41;;;;;;;13.23;11.80;;;;;;;17.86;nan;99740.25;4967180;28;20541;-77
2022/06/02 05:09:26;;;;;;;15.85;12.10;;;;;;;17.96;nan;99750.69;4960406;28;20034;-78
2022/06/02 05:11:51;;;;;;;12.57;11.48;;;;;;;18.03;nan;99746.22;4966156;28;20047;-78
2022/06/02 05:14:32;;;;;;;13.63;12.23;;;;;;;18.04;nan;99747.88;4966505;28;20023;-77
2022/06/02 05:17:16;;;;;;;12.50;11.32;;;;;;;18.13;nan;99744.13;4964153;28;20075;-77
2022/06/02 05:20:07;;;;;;;12.93;11.73;;;;;;;18.12;nan;99755.81;4962606;28;20059;-78
2022/06/02 05:22:51;;;;;;;13.95;11.52;;;;;;;18.18;nan;99754.22;4964372;28;20135;-78
2022/06/02 05:25:36;;;;;;;12.32;11.23;;;;;;;18.21;nan;99754.69;4966337;28;20369;-77
2022/06/02 05:28:13;;;;;;;13.13;11.73;;;;;;;18.25;nan;99755.16;4963986;28;20039;-77
2022/06/02 05:30:42;;;;;;;13.25;11.95;;;;;;;18.19;nan;99748.72;4962891;28;20038;-77
2022/06/02 05:33:26;;;;;;;13.05;11.77;;;;;;;18.18;nan;99746.22;4964856;28;20035;-78
2022/06/02 05:36:21;;;;;;;12.32;11.05;;;;;;;18.27;nan;99743.25;4962653;28;20087;-78
2022/06/02 05:38:52;;;;;;;18.50;12.95;;;;;;;18.38;nan;99752.59;4957198;28;20058;-79
2022/06/02 05:41:34;;;;;;;17.20;12.95;;;;;;;18.30;nan;99750.91;4962430;28;20027;-80
2022/06/02 05:44:19;;;;;;;13.60;12.30;;;;;;;18.30;nan;99753.56;4963664;28;20051;-78
2022/06/02 05:47:10;;;;;;;14.57;12.88;;;;;;;18.42;nan;99764.59;4962127;28;20114;-77
2022/06/02 05:49:47;;;;;;;15.02;13.00;;;;;;;18.51;nan;99762.63;4962778;28;20134;-78
2022/06/02 05:52:37;;;;;;;17.38;13.55;;;;;;;18.60;nan;99766.88;4962213;28;20028;-79
2022/06/02 05:55:27;;;;;;;16.77;13.75;;;;;;;18.68;nan;99761.41;4966224;28;20045;-79
2022/06/02 05:58:09;;;;;;;15.00;13.50;;;;;;;18.65;nan;99770.66;4962208;28;20031;-79
2022/06/02 06:00:50;;;;;;;14.13;12.68;;;;;;;18.34;nan;99776.22;4963184;28;20053;-79
2022/06/02 06:03:37;;;;;;;17.50;13.63;;;;;;;18.38;nan;99782.84;4964252;28;20550;-79
2022/06/02 06:06:33;;;;;;;14.90;12.82;;;;;;;18.55;nan;99786.16;4963755;28;20035;-79
2022/06/02 06:09:09;;;;;;;15.10;13.63;;;;;;;18.72;nan;99779.56;4958818;28;20137;-79
2022/06/02 06:11:53;;;;;;;16.55;14.82;;;;;;;18.78;nan;99783.31;4962779;28;20046;-79
2022/06/02 06:14:45;;;;;;;17.35;15.15;;;;;;;18.92;nan;99785.09;4961854;28;20042;-79
2022/06/02 06:17:52;;;;;;;17.65;15.93;;;;;;;18.99;nan;99790.50;4964660;28;20122;-79
2022/06/02 06:20:44;;;;;;;18.50;16.33;;;;;;;19.05;nan;99795.94;4958926;28;20070;-79
2022/06/02 06:23:22;;;;;;;17.70;15.85;;;;;;;19.23;nan;99796.31;4964613;28;20090;-78
2022/06/02 06:26:00;;;;;;;20.58;17.92;;;;;;;19.38;nan;99792.72;4976472;28;20043;-80
2022/06/02 06:28:30;;;;;;;19.27;17.25;;;;;;;19.22;nan;99791.13;4976608;28;20134;-78
2022/06/02 06:31:15;;;;;;;19.13;17.25;;;;;;;19.33;nan;99792.47;4962870;28;20031;-78
2022/06/02 06:33:54;;;;;;;18.95;16.25;;;;;;;19.44;nan;99794.63;4963649;28;20039;-78
2022/06/02 06:36:28;;;;;;;20.58;17.25;;;;;;;19.59;nan;99795.38;4961681;28;20493;-78
2022/06/02 06:39:09;;;;;;;19.17;16.08;;;;;;;19.73;nan;99794.47;4961917;28;20369;-78
2022/06/02 06:41:34;;;;;;;;;;;;;;;19.88;nan;99792.50;4962959;28;20077;-79
2022/06/02 06:43:59;;;;;;;23.90;17.40;;;;;;;20.04;nan;99796.69;4962428;28;19957;-78
2022/06/02 06:46:43;;;;;;;19.52;16.13;;;;;;;20.13;nan;99795.53;4964053;28;20503;-78
2022/06/02 06:49:27;;;;;;;18.73;15.93;;;;;;;20.25;nan;99799.28;4963347;28;20099;-78
2022/06/02 06:52:33;;;;;;;16.98;15.38;;;;;;;20.39;nan;99810.91;4961174;28;20030;-78
2022/06/02 06:55:27;;;;;;;16.67;14.90;;;;;;;20.48;nan;99814.25;4962252;28;20032;-78
2022/06/02 06:58:16;;;;;;;18.17;16.35;;;;;;;20.33;nan;99806.34;4967439;28;20066;-78
2022/06/02 07:00:53;;;;;;;18.77;16.10;;;;;;;20.29;nan;99810.44;4964998;28;20028;-78
2022/06/02 07:03:34;;;;;;;17.58;15.77;;;;;;;20.40;nan;99812.56;4961344;28;20086;-78
2022/06/02 07:06:11;;;;;;;18.83;15.95;;;;;;;20.53;nan;99807.28;4962021;28;20515;-78
2022/06/02 07:08:43;;;;;;;19.80;15.05;;;;;;;20.62;nan;99800.69;4961951;28;20089;-78
2022/06/02 07:14:26;;;;;;;16.70;14.95;;;;;;;20.83;nan;99808.59;4964087;28;20062;-78
2022/06/02 07:16:55;;;;;;;17.20;15.25;;;;;;;21.00;nan;99808.22;4960799;28;20078;-78
2022/06/02 07:19:33;;;;;;;16.87;14.97;;;;;;;21.11;nan;99807.63;4962855;28;20038;-79
2022/06/02 07:22:12;;;;;;;16.98;15.27;;;;;;;21.23;nan;99809.53;4961846;28;20039;-80
2022/06/02 07:25:05;;;;;;;16.05;14.48;;;;;;;21.28;nan;99816.94;4960009;28;20050;-81
2022/06/02 07:27:58;;;;;;;18.17;15.60;;;;;;;21.23;nan;99814.88;4961705;28;20046;-80
2022/06/02 07:30:51;;;;;;;20.50;15.90;;;;;;;21.35;nan;99817.78;4961593;28;20336;-80
2022/06/02 07:33:47;;;;;;;14.82;13.50;;;;;;;21.51;nan;99812.00;4960867;28;20031;-79
2022/06/02 07:36:34;;;;;;;15.70;14.18;;;;;;;21.64;nan;99803.94;4963801;28;20039;-78
2022/06/02 07:39:13;;;;;;;20.17;14.68;;;;;;;21.81;nan;99807.00;4965821;28;20031;-78
2022/06/02 07:42:03;;;;;;;14.60;13.30;;;;;;;21.92;nan;99813.59;4961367;28;20067;-78
2022/06/02 07:44:41;;;;;;;15.00;13.45;;;;;;;22.02;nan;99808.69;4975125;28;20155;-78
2022/06/02 07:47:19;;;;;;;15.52;13.95;;;;;;;22.17;nan;99819.16;4962458;28;20464;-78
2022/06/02 07:49:45;;;;;;;16.33;13.80;;;;;;;22.23;nan;99843.34;4960499;28;20094;-78
2022/06/02 07:52:18;;;;;;;18.63;13.48;;;;;;;22.35;nan;99848.88;4963127;28;20403;-79
2022/06/02 07:55:21;;;;;;;17.67;14.30;;;;;;;22.33;nan;99862.53;4959754;28;20034;-79
2022/06/02 07:57:50;;;;;;;13.82;12.43;;;;;;;22.43;nan;99864.78;4960009;28;20507;-79
2022/06/02 08:00:24;;;;;;;15.02;12.73;;;;;;;22.53;nan;99872.41;4963924;28;20502;-79
2022/06/02 08:03:17;;;;;;;14.75;13.25;;;;;;;22.54;nan;99866.00;4975212;28;20403;-79
2022/06/02 08:06:02;;;;;;;14.02;11.73;;;;;;;22.62;nan;99863.06;4963181;28;20379;-79
2022/06/02 08:08:57;;;;;;;13.75;12.45;;;;;;;22.73;nan;99865.13;4960752;28;20499;-80
2022/06/02 08:11:41;;;;;;;13.68;11.68;;;;;;;22.80;nan;99871.28;4960442;28;20035;-79
2022/06/02 08:14:24;;;;;;;14.40;11.48;;;;;;;22.87;nan;99872.09;4961107;28;20492;-79
2022/06/02 08:17:01;;;;;;;12.05;10.88;;;;;;;22.97;nan;99874.31;4974915;28;20101;-78
2022/06/02 08:19:39;;;;;;;10.25;9.25;;;;;;;22.97;nan;99869.78;4961103;28;20042;-78
2022/06/02 08:22:10;;;;;;;10.07;9.07;;;;;;;23.00;nan;99860.44;4961302;28;20046;-80
2022/06/02 08:25:10;;;;;;;10.73;9.73;;;;;;;23.06;nan;99860.41;4958353;28;20039;-79
2022/06/02 08:27:59;;;;;;;11.23;10.18;;;;;;;23.08;nan;99850.25;4976111;28;20047;-79
2022/06/02 08:30:55;;;;;;;9.10;8.20;;;;;;;23.14;nan;99851.25;4975230;28;20039;-79
2022/06/02 08:33:46;;;;;;;10.68;8.85;;;;;;;23.22;nan;99843.72;4960206;28;20477;-79
2022/06/02 08:36:23;;;;;;;9.10;8.18;;;;;;;23.30;nan;99847.19;4963647;28;20438;-79
2022/06/02 08:38:56;;;;;;;10.80;7.93;;;;;;;23.40;nan;99834.06;4963419;28;20054;-79
2022/06/02 08:41:49;;;;;;;8.50;6.72;;;;;;;23.51;nan;99830.69;4963619;28;20488;-79
2022/06/02 08:44:42;;;;;;;7.65;6.82;;;;;;;23.57;nan;99835.19;4963240;28;20031;-79
2022/06/02 08:47:26;;;;;;;6.35;5.70;;;;;;;23.63;nan;99828.94;4965616;28;20035;-80
2022/06/02 08:50:16;;;;;;;6.38;5.72;;;;;;;23.62;nan;99824.59;4963393;28;20038;-79
2022/06/02 08:52:50;;;;;;;6.13;4.82;;;;;;;23.63;nan;99837.00;4963606;28;20031;-78
2022/06/02 08:55:58;;;;;;;6.35;5.45;;;;;;;23.66;nan;99818.56;4963009;28;20584;-79
2022/06/02 08:58:38;;;;;;;7.00;5.30;;;;;;;23.72;nan;99827.63;4955167;28;20097;-79
2022/06/02 09:01:15;;;;;;;;;;;;;;;23.81;nan;99826.28;4964967;28;20031;-79
2022/06/02 09:04:03;;;;;;;5.72;4.68;;;;;;;23.90;nan;99824.97;4980345;28;19969;-79
2022/06/02 09:06:57;;;;;;;6.95;4.50;;;;;;;23.97;nan;99819.50;4978845;28;20050;-80
2022/06/02 09:09:32;;;;;;;7.90;5.40;;;;;;;24.02;nan;99815.09;4978265;28;20484;-80
2022/06/02 09:12:22;;;;;;;5.65;4.50;;;;;;;24.05;nan;99816.50;4965012;28;20045;-80
2022/06/02 09:15:05;;;;;;;6.37;4.70;;;;;;;24.11;nan;99806.69;4962547;28;20086;-80
2022/06/02 09:17:53;;;;;;;5.63;4.70;;;;;;;24.13;nan;99812.69;4964270;28;20337;-77
2022/06/02 09:20:37;;;;;;;6.28;4.40;;;;;;;24.15;nan;99811.41;4966750;28;20039;-77
2022/06/02 09:23:12;;;;;;;5.07;4.45;;;;;;;24.18;nan;99815.53;4964194;28;20364;-77
2022/06/02 09:25:50;;;;;;;6.25;4.78;;;;;;;24.23;nan;99804.94;4963554;28;20039;-80
2022/06/02 09:28:53;;;;;;;7.30;4.88;;;;;;;24.22;nan;99806.78;4962491;28;20067;-78
2022/06/02 09:31:43;;;;;;;4.95;4.50;;;;;;;24.27;nan;99803.44;4962652;28;20137;-78
2022/06/02 09:34:25;;;;;;;5.93;4.78;;;;;;;24.31;nan;99805.47;4977443;28;20039;-78
2022/06/02 09:37:32;;;;;;;5.10;4.60;;;;;;;24.40;nan;99811.34;4962539;28;20543;-78
2022/06/02 09:40:15;;;;;;;5.95;4.68;;;;;;;24.45;nan;99798.00;4961522;28;20050;-79
2022/06/02 09:43:02;;;;;;;5.68;5.07;;;;;;;24.51;nan;99802.50;4960282;28;20050;-79
2022/06/02 09:45:43;;;;;;;6.70;4.55;;;;;;;24.52;nan;99798.75;4960146;28;20432;-78
2022/06/02 09:48:27;;;;;;;5.85;4.60;;;;;;;24.54;nan;99799.38;4961061;28;20130;-78
2022/06/02 09:51:18;;;;;;;6.75;4.70;;;;;;;24.61;nan;99799.28;4960570;28;20122;-79
2022/06/02 09:54:01;;;;;;;9.40;4.38;;;;;;;24.73;nan;99787.50;4962883;28;20039;-79
2022/06/02 09:56:35;;;;;;;6.50;5.15;;;;;;;24.84;nan;99793.97;4963996;28;20046;-80
2022/06/02 09:59:35;;;;;;;5.65;5.10;;;;;;;24.92;nan;99779.38;4960747;28;20122;-77
2022/06/02 10:02:22;;;;;;;7.97;4.70;;;;;;;24.90;nan;99784.16;4961131;28;20054;-79
2022/06/02 10:05:20;;;;;;;6.43;4.90;;;;;;;24.93;nan;99781.00;4970952;28;20459;-78
2022/06/02 10:08:00;;;;;;;9.30;5.10;;;;;;;24.98;nan;99781.94;4946701;28;20042;-78
2022/06/02 10:10:39;;;;;;;4.95;4.45;;;;;;;25.05;nan;99784.56;4961176;28;20047;-79
2022/06/02 10:13:23;;;;;;;6.63;5.00;;;;;;;25.10;nan;99779.28;4962811;28;20210;-79
2022/06/02 10:16:23;;;;;;;5.72;4.57;;;;;;;25.14;nan;99780.47;4961496;28;20043;-79
2022/06/02 10:19:06;;;;;;;6.68;5.18;;;;;;;25.20;nan;99776.84;4961649;28;20118;-78
2022/06/02 10:21:46;;;;;;;6.38;4.72;;;;;;;25.27;nan;99782.97;4961626;28;20031;-79
2022/06/02 10:24:27;;;;;;;6.05;4.50;;;;;;;25.29;nan;99780.84;4964383;28;20050;-78
2022/06/02 10:26:55;;;;;;;9.52;5.40;;;;;;;25.33;nan;99786.63;4962066;28;20089;-80
2022/06/02 10:29:30;;;;;;;7.28;4.40;;;;;;;25.36;nan;99781.56;4961180;28;20446;-79
2022/06/02 10:32:19;;;;;;;7.30;5.22;;;;;;;25.42;nan;99786.03;4964546;28;20395;-80
2022/06/02 10:34:47;;;;;;;7.07;4.90;;;;;;;25.44;nan;99775.81;4964515;28;20026;-79
2022/06/02 10:37:30;;;;;;;6.18;4.65;;;;;;;25.45;nan;99769.34;4962071;28;20049;-78
2022/06/02 10:40:08;;;;;;;5.65;4.90;;;;;;;25.46;nan;99771.00;4962865;28;20381;-78
2022/06/02 10:43:09;;;;;;;5.22;4.60;;;;;;;25.47;nan;99772.63;4962997;28;20039;-78
2022/06/02 10:45:40;;;;;;;6.30;5.32;;;;;;;25.53;nan;99777.09;4963130;28;20061;-78
2022/06/02 10:48:30;;;;;;;4.65;4.22;;;;;;;25.57;nan;99781.00;4962813;28;20443;-80
2022/06/02 10:51:33;;;;;;;5.93;4.25;;;;;;;25.65;nan;99780.66;4961995;28;20042;-80
2022/06/02 10:54:39;;;;;;;7.78;4.57;;;;;;;25.76;nan;99775.47;4962464;28;20122;-79
2022/06/02 10:57:26;;;;;;;7.03;4.90;;;;;;;25.79;nan;99769.63;4962772;28;20058;-78
2022/06/02 11:00:03;;;;;;;6.38;5.25;;;;;;;25.91;nan;99767.72;4961244;28;20067;-78
2022/06/02 11:02:54;;;;;;;10.77;4.45;;;;;;;26.01;nan;99757.13;4963347;28;20039;-78
2022/06/02 11:05:26;;;;;;;;;;;;;;;26.19;nan;99764.25;4978046;28;20047;-80
2022/06/02 11:07:54;;;;;;;6.53;4.78;;;;;;;26.31;nan;99765.09;4961948;28;19918;-79
2022/06/02 11:10:36;;;;;;;6.35;4.80;;;;;;;26.38;nan;99753.06;4964806;28;20097;-79
2022/06/02 11:13:45;;;;;;;6.38;4.38;;;;;;;26.46;nan;99760.78;4962430;28;20094;-79
2022/06/02 11:16:22;;;;;;;6.88;4.53;;;;;;;26.42;nan;99748.00;4963534;28;20051;-79
2022/06/02 11:19:15;;;;;;;5.68;4.55;;;;;;;26.41;nan;99747.16;4960854;28;20035;-78
2022/06/02 11:22:05;;;;;;;4.88;3.97;;;;;;;26.47;nan;99745.38;4963850;28;20035;-78
2022/06/02 11:24:46;;;;;;;4.55;4.15;;;;;;;26.55;nan;99747.72;4960908;28;20042;-79
2022/06/02 11:27:27;;;;;;;6.78;4.38;;;;;;;26.48;nan;99734.31;4962335;28;20495;-78
2022/06/02 11:30:30;;;;;;;5.57;4.30;;;;;;;26.47;nan;99735.38;4960740;28;20031;-79
2022/06/02 11:33:18;;;;;;;5.88;4.18;;;;;;;26.60;nan;99733.44;4961323;28;20369;-78
2022/06/02 11:36:13;;;;;;;4.60;4.20;;;;;;;26.67;nan;99740.34;4960858;28;20058;-78
2022/06/02 11:39:09;;;;;;;5.00;4.05;;;;;;;26.83;nan;99744.97;4962857;28;20105;-78
2022/06/02 11:41:49;;;;;;;4.60;4.03;;;;;;;26.96;nan;99743.06;4962254;28;20035;-79
2022/06/02 11:44:24;;;;;;;8.25;3.90;;;;;;;26.98;nan;99744.44;4960558;28;20027;-80
2022/06/02 11:47:36;;;;;;;8.43;4.18;;;;;;;27.00;nan;99741.50;4960375;28;20554;-78
2022/06/02 11:50:10;;;;;;;4.60;3.53;;;;;;;27.05;nan;99739.69;4961899;28;20046;-78
2022/06/02 11:53:01;;;;;;;5.70;4.18;;;;;;;27.09;nan;99740.84;4961582;28;20046;-81
2022/06/02 11:55:32;;;;;;;5.00;4.25;;;;;;;27.08;nan;99731.09;4961153;28;20039;-80
2022/06/02 11:58:09;;;;;;;4.72;3.95;;;;;;;27.14;nan;99734.69;4962587;28;20039;-80
2022/06/02 12:01:25;;;;;;;4.53;3.75;;;;;;;27.35;nan;99730.41;4962048;28;20043;-79
2022/06/02 12:04:24;;;;;;;4.43;3.88;;;;;;;27.56;nan;99716.13;4962650;28;20185;-79
2022/06/02 12:07:01;;;;;;;5.25;3.88;;;;;;;27.71;nan;99708.19;4960072;28;20043;-79
2022/06/02 12:09:48;;;;;;;5.47;4.10;;;;;;;27.68;nan;99700.59;4961761;28;20078;-78
2022/06/02 12:12:22;;;;;;;6.25;4.20;;;;;;;27.59;nan;99704.78;4964734;28;20031;-79
2022/06/02 12:15:19;;;;;;;5.10;3.78;;;;;;;27.60;nan;99707.25;4963828;28;20893;-79
2022/06/02 12:18:12;;;;;;;5.68;3.85;;;;;;;27.60;nan;99701.00;4981893;28;20053;-79
2022/06/02 12:21:12;;;;;;;4.75;4.10;;;;;;;27.78;nan;99697.19;4966008;28;20035;-79
2022/06/02 12:24:03;;;;;;;3.70;3.40;;;;;;;27.94;nan;99691.69;4978930;28;20721;-79
2022/06/02 12:26:44;;;;;;;3.63;3.33;;;;;;;28.28;nan;99696.97;4964986;28;20031;-79
2022/06/02 12:29:39;;;;;;;5.65;3.65;;;;;;;28.57;nan;99695.66;4964604;28;20039;-79
2022/06/02 12:32:24;;;;;;;4.57;3.40;;;;;;;28.82;nan;99693.22;4963390;28;20101;-79
2022/06/02 12:35:04;;;;;;;5.40;3.58;;;;;;;29.03;nan;99690.69;4978807;28;20066;-79
2022/06/02 12:38:08;;;;;;;3.92;3.63;;;;;;;29.03;nan;99698.84;4964871;28;20099;-79
2022/06/02 12:41:03;;;;;;;5.70;3.63;;;;;;;28.87;nan;99701.41;4965302;28;20043;-79
2022/06/02 12:43:31;;;;;;;5.20;3.40;;;;;;;28.77;nan;99701.31;4964407;28;20074;-79
2022/06/02 12:46:21;;;;;;;4.57;3.17;;;;;;;28.53;nan;99705.41;4966335;28;20109;-79
2022/06/02 12:49:05;;;;;;;4.95;3.13;;;;;;;28.79;nan;99704.63;4966131;28;20098;-80
2022/06/02 12:51:51;;;;;;;4.65;3.38;;;;;;;29.40;nan;99696.13;4979802;28;20043;-79
2022/06/02 12:54:32;;;;;;;3.72;3.42;;;;;;;29.97;nan;99693.47;4979811;28;20476;-80
2022/06/02 12:57:28;;;;;;;8.43;3.30;;;;;;;30.86;nan;99701.34;4969744;28;20118;-79
2022/06/02 13:00:16;;;;;;;4.30;2.97;;;;;;;31.49;nan;99690.94;4963829;28;20059;-80
2022/06/02 13:02:54;;;;;;;3.20;2.90;;;;;;;31.92;nan;99682.09;4966791;28;20617;-79
2022/06/02 13:05:57;;;;;;;5.97;2.78;;;;;;;32.42;nan;99686.50;4978528;28;20054;-80
2022/06/02 13:08:35;;;;;;;4.07;3.05;;;;;;;33.41;nan;99681.63;4963670;28;20038;-79
2022/06/02 13:11:08;;;;;;;6.97;3.17;;;;;;;33.98;nan;99679.91;4965467;28;20042;-80
2022/06/02 13:13:55;;;;;;;3.33;2.55;;;;;;;34.30;nan;99674.53;4964633;28;20035;-81